Time,TemperatureF,DewpointF,PressureIn,WindDirection,WindDirectionDegrees,WindSpeedMPH,WindSpeedGustMPH,Humidity,HourlyPrecipIn,Conditions,Clouds,dailyrainin,SoftwareType,DateUTC
2013-08-15 06:42:00,62.0,54.0,-100.00,ESE,105,1.0,4.0,73,0.00,,,-99.99,,2013-08-15 11:42:00,
2013-08-15 08:42:00,65.0,55.0,-100.00,ESE,120,3.0,4.0,68,0.00,,,-99.99,,2013-08-15 13:42:00,
2013-08-15 09:22:00,66.0,55.0,-100.00,SE,125,3.0,5.0,66,0.00,,,-99.99,,2013-08-15 14:22:00,
2013-08-15 09:43:00,67.0,55.0,-100.00,ESE,120,3.0,6.0,65,0.00,,,-99.99,,2013-08-15 14:43:00,
2013-08-15 10:23:00,69.0,56.0,-100.00,SE,135,2.0,5.0,62,0.00,,,-99.99,,2013-08-15 15:23:00,
2013-08-15 10:43:00,70.0,56.0,-100.00,SE,145,2.0,7.0,60,0.00,,,-99.99,,2013-08-15 15:43:00,
2013-08-15 11:26:00,72.0,53.0,-100.00,South,185,2.0,7.0,51,0.00,,,-99.99,,2013-08-15 16:26:00,
2013-08-15 11:44:00,72.0,55.0,-100.00,ENE,70,0.0,3.0,55,0.00,,,-99.99,,2013-08-15 16:44:00,
2013-08-15 12:30:00,72.0,-99.9,-100.00,ESE,115,4.0,6.0,54,0.00,,,-99.99,,2013-08-15 17:30:00,
2013-08-15 12:53:00,72.0,54.0,-100.00,East,90,2.0,7.0,53,0.00,,,-99.99,,2013-08-15 17:53:00,
2013-08-15 13:00:00,-999.0,-99.9,-100.00,East,90,4.0,6.0,-999,-99.99,,,-99.99,,2013-08-15 18:00:00,
2013-08-15 13:35:00,-999.0,-99.9,-100.00,SSE,165,3.0,6.0,-999,0.00,,,-99.99,,2013-08-15 18:35:00,
2013-08-15 13:49:00,74.0,53.0,-100.00,SSE,150,2.0,7.0,48,0.00,,,-99.99,,2013-08-15 18:49:00,
2013-08-15 14:05:00,-999.0,-99.9,-100.00,SE,130,4.0,7.0,-999,0.00,,,-99.99,,2013-08-15 19:05:00,
2013-08-15 14:34:00,-999.0,-99.9,-100.00,South,185,2.0,13.0,-999,-99.99,,,-99.99,,2013-08-15 19:34:00,
2013-08-15 14:49:00,74.0,51.0,-100.00,SSE,160,5.0,9.0,42,0.00,,,-99.99,,2013-08-15 19:49:00,
2013-08-15 15:45:00,78.0,51.0,-100.00,SE,130,6.0,10.0,38,0.00,,,-99.99,,2013-08-15 20:45:00,
2013-08-15 16:36:00,74.0,51.0,-100.00,SSW,210,6.0,9.0,44,0.00,,,-99.99,,2013-08-15 21:36:00,
2013-08-15 16:49:00,75.0,51.0,-100.00,SE,130,3.0,6.0,41,0.00,,,-99.99,,2013-08-15 21:49:00,
2013-08-15 17:29:00,76.0,52.0,-100.00,SE,125,4.0,9.0,43,0.00,,,-99.99,,2013-08-15 22:29:00,
2013-08-15 17:49:00,77.0,51.0,-100.00,ESE,110,2.0,12.0,40,0.00,,,-99.99,,2013-08-15 22:49:00,
2013-08-15 18:35:00,-999.0,-99.9,-100.00,ESE,120,4.0,9.0,41,0.00,,,-99.99,,2013-08-15 23:35:00,
2013-08-15 18:48:00,73.0,49.0,-100.00,SE,125,4.0,9.0,42,0.00,,,-99.99,,2013-08-15 23:48:00,
2013-08-15 19:24:00,71.0,49.0,-100.00,ESE,110,4.0,8.0,46,0.00,,,-99.99,,2013-08-16 00:24:00,
2013-08-15 20:43:00,-999.0,-99.9,-100.00,ESE,120,1.0,-999.0,-999,-99.99,,,-99.99,,2013-08-16 01:43:00,